Time;durP1;ratioP1;P1;durP2;ratioP2;P2;SDS_P1;SDS_P2;PMS_P1;PMS_P2;Temp;Humidity;BMP_temperature;BMP_pressure;BME280_temperature;BME280_humidity;BME280_pressure;Samples;Min_cycle;Max_cycle;Signal;HPM_P1;HPM_P2
2022/03/06 00:02:04;;;;;;;;;;;0.40;99.30;;;;;;5067369;28;19916;-80
2022/03/06 00:04:29;;;;;;;;;;;0.50;99.50;;;;;;5084616;28;19993;-80
2022/03/06 00:06:56;;;;;;;;;;;0.30;99.30;;;;;;5103041;28;19937;-80
2022/03/06 00:09:21;;;;;;;;;;;0.20;99.30;;;;;;5102514;28;20437;-80
2022/03/06 00:11:47;;;;;;;;;;;1.10;99.70;;;;;;5084261;28;20180;-80
2022/03/06 00:14:13;;;;;;;;;;;0.40;99.60;;;;;;5102676;28;19907;-79
2022/03/06 00:16:41;;;;;;;;;;;0.40;99.60;;;;;;5102096;28;19954;-80
2022/03/06 00:19:06;;;;;;;;;;;0.30;99.80;;;;;;5102299;28;19919;-80
2022/03/06 00:21:34;;;;;;;;;;;0.80;99.90;;;;;;5101912;28;19908;-80
2022/03/06 00:24:01;;;;;;;;;;;0.40;99.90;;;;;;5084237;28;20320;-79
2022/03/06 00:26:26;;;;;;;;;;;0.30;99.90;;;;;;5083705;28;19908;-80
2022/03/06 00:28:52;;;;;;;;;;;0.70;99.90;;;;;;5083584;28;19919;-80
2022/03/06 00:31:17;;;;;;;;;;;0.30;99.90;;;;;;5083654;28;19916;-80
2022/03/06 00:33:43;;;;;;;;;;;0.20;99.90;;;;;;5102326;28;20135;-82
2022/03/06 00:36:09;;;;;;;;;;;0.30;99.90;;;;;;5102115;28;19919;-80
2022/03/06 00:38:34;;;;;;;;;;;0.40;99.90;;;;;;5083279;28;19915;-80
2022/03/06 00:41:00;;;;;;;;;;;0.30;99.90;;;;;;5102194;28;19908;-80
2022/03/06 00:43:26;;;;;;;;;;;0.30;99.90;;;;;;5102135;28;20443;-80
2022/03/06 00:45:51;;;;;;;;;;;0.20;99.90;;;;;;5080754;28;20406;-80
2022/03/06 00:48:17;;;;;;;;;;;0.30;99.90;;;;;;5082146;28;20107;-80
2022/03/06 00:50:42;;;;;;;;;;;0.70;99.90;;;;;;5082196;28;19916;-81
2022/03/06 00:53:08;;;;;;;;;;;0.20;99.90;;;;;;5082618;28;19908;-81
2022/03/06 00:55:34;;;;;;;;;;;0.20;99.90;;;;;;5080893;28;19938;-80
2022/03/06 00:58:06;;;;;;;;;;;0.20;99.90;;;;;;5082235;28;19919;-79
2022/03/06 01:00:35;;;;;;;;;;;0.20;99.90;;;;;;5082584;28;19923;-80
2022/03/06 01:03:02;;;;;;;;;;;0.20;99.90;;;;;;5082678;28;20430;-80
2022/03/06 01:05:27;;;;;;;;;;;0.20;99.90;;;;;;5082221;28;19916;-80
2022/03/06 01:07:53;;;;;;;;;;;0.20;99.90;;;;;;5082863;28;19908;-80
2022/03/06 01:10:19;;;;;;;;;;;0.20;99.90;;;;;;5082512;28;20572;-80
2022/03/06 01:12:45;;;;;;;;;;;0.20;99.90;;;;;;5089589;28;20007;-82
2022/03/06 01:15:11;;;;;;;;;;;0.10;99.90;;;;;;5087485;28;19948;-80
2022/03/06 01:17:36;;;;;;;;;;;2.00;99.90;;;;;;5081841;28;19969;-80
2022/03/06 01:20:02;;;;;;;;;;;0.10;99.90;;;;;;5082102;28;19908;-80
2022/03/06 01:22:28;;;;;;;;;;;0.10;99.90;;;;;;5081537;28;20484;-81
2022/03/06 01:24:54;;;;;;;;;;;1.30;99.90;;;;;;5080298;28;20245;-81
2022/03/06 01:27:19;;;;;;;;;;;0.00;99.90;;;;;;5082234;28;19915;-80
2022/03/06 01:29:45;;;;;;;;;;;0.00;99.90;;;;;;5081988;28;19920;-81
2022/03/06 01:32:10;;;;;;;;;;;0.00;99.90;;;;;;5080978;28;19908;-80
2022/03/06 01:34:36;;;;;;;;;;;1.10;99.90;;;;;;5082342;28;19923;-81
2022/03/06 01:37:01;;;;;;;;;;;-0.10;99.90;;;;;;5082228;28;19911;-80
2022/03/06 01:39:27;;;;;;;;;;;-0.10;99.90;;;;;;5082202;28;20612;-81
2022/03/06 01:41:53;;;;;;;;;;;0.00;99.90;;;;;;5080842;28;19922;-80
2022/03/06 01:44:18;;;;;;;;;;;0.00;99.90;;;;;;5083075;28;20097;-81
2022/03/06 01:46:47;;;;;;;;;;;0.00;99.90;;;;;;5102199;28;19930;-80
2022/03/06 01:49:13;;;;;;;;;;;0.00;99.90;;;;;;5102675;28;20429;-81
2022/03/06 01:51:39;;;;;;;;;;;-0.10;99.90;;;;;;5103036;28;19918;-81
2022/03/06 01:54:04;;;;;;;;;;;1.50;99.90;;;;;;5102759;28;19908;-80
2022/03/06 01:56:30;;;;;;;;;;;-0.10;99.90;;;;;;5106748;28;19919;-80
2022/03/06 01:58:57;;;;;;;;;;;1.20;99.90;;;;;;5107755;28;19961;-80
2022/03/06 02:01:22;;;;;;;;;;;-0.20;99.90;;;;;;5109263;28;19999;-81
2022/03/06 02:03:48;;;;;;;;;;;-0.30;99.90;;;;;;5084525;28;20214;-80
2022/03/06 02:06:16;;;;;;;;;;;-0.30;99.90;;;;;;5102518;28;19919;-81
2022/03/06 02:08:41;;;;;;;;;;;-0.30;99.90;;;;;;5102165;28;19995;-81
2022/03/06 02:11:07;;;;;;;;;;;-0.30;99.90;;;;;;5103079;28;20018;-80
2022/03/06 02:13:33;;;;;;;;;;;0.40;99.90;;;;;;5084321;28;20267;-81
2022/03/06 02:15:58;;;;;;;;;;;0.10;99.90;;;;;;5084011;28;19918;-81
2022/03/06 02:18:24;;;;;;;;;;;-0.20;99.90;;;;;;5109781;28;19908;-81
2022/03/06 02:20:49;;;;;;;;;;;-0.20;99.90;;;;;;5104166;28;19911;-81
2022/03/06 02:23:15;;;;;;;;;;;-0.20;99.90;;;;;;5098460;28;19907;-80
2022/03/06 02:25:41;;;;;;;;;;;-0.20;99.90;;;;;;5117822;28;19993;-80
2022/03/06 02:28:08;;;;;;;;;;;-0.20;99.90;;;;;;5114408;28;20302;-81
2022/03/06 02:30:35;;;;;;;;;;;2.20;99.90;;;;;;5105327;28;20222;-81
2022/03/06 02:33:05;;;;;;;;;;;-0.20;99.90;;;;;;5104540;28;19953;-81
2022/03/06 02:35:31;;;;;;;;;;;-0.20;99.90;;;;;;5104618;28;19998;-79
2022/03/06 02:37:57;;;;;;;;;;;-0.30;99.90;;;;;;5103977;28;19957;-81
2022/03/06 02:40:22;;;;;;;;;;;-0.40;99.90;;;;;;5103651;28;19947;-82
2022/03/06 02:42:49;;;;;;;;;;;-0.30;99.90;;;;;;5103430;28;19907;-81
2022/03/06 02:45:18;;;;;;;;;;;-0.40;99.90;;;;;;5102829;28;19927;-81
2022/03/06 02:47:44;;;;;;;;;;;-0.30;99.90;;;;;;5103303;28;19968;-81
2022/03/06 02:50:12;;;;;;;;;;;-0.40;99.90;;;;;;5102902;28;19911;-81
2022/03/06 02:52:37;;;;;;;;;;;-0.40;99.90;;;;;;5103311;28;19915;-81
2022/03/06 02:55:04;;;;;;;;;;;-0.50;99.90;;;;;;5104044;28;20133;-80
2022/03/06 02:57:29;;;;;;;;;;;-0.50;99.90;;;;;;5104048;28;20378;-81
2022/03/06 02:59:55;;;;;;;;;;;-0.30;99.90;;;;;;5106451;28;19919;-80
2022/03/06 03:02:21;;;;;;;;;;;-0.40;99.90;;;;;;5105382;28;19918;-80
2022/03/06 03:04:46;;;;;;;;;;;-0.10;99.90;;;;;;5103616;28;19927;-81
2022/03/06 03:07:12;;;;;;;;;;;-0.40;99.90;;;;;;5103075;28;20211;-81
2022/03/06 03:09:37;;;;;;;;;;;-0.30;99.90;;;;;;5103428;28;19915;-80
2022/03/06 03:12:04;;;;;;;;;;;-0.30;99.90;;;;;;5092296;28;19969;-81
2022/03/06 03:14:33;;;;;;;;;;;-0.40;99.90;;;;;;5112021;28;19914;-80
2022/03/06 03:16:59;;;;;;;;;;;-0.40;99.90;;;;;;5104828;28;19931;-80
2022/03/06 03:19:25;;;;;;;;;;;-0.40;99.90;;;;;;5111224;28;20417;-82
2022/03/06 03:21:50;;;;;;;;;;;-1.90;99.90;;;;;;5115163;28;20104;-81
2022/03/06 03:24:16;;;;;;;;;;;-0.30;99.90;;;;;;5114553;28;20208;-81
2022/03/06 03:26:41;;;;;;;;;;;-0.30;99.90;;;;;;5108793;28;20451;-79
2022/03/06 03:29:07;;;;;;;;;;;0.70;99.90;;;;;;5105054;28;19959;-81
2022/03/06 03:31:32;;;;;;;;;;;-0.20;99.90;;;;;;5086902;28;20256;-81
2022/03/06 03:33:58;;;;;;;;;;;-0.20;99.90;;;;;;5104847;28;20208;-81
2022/03/06 03:36:24;;;;;;;;;;;2.40;99.90;;;;;;5069352;28;19965;-81
2022/03/06 03:38:49;;;;;;;;;;;-0.10;99.90;;;;;;5105134;28;19908;-81
2022/03/06 03:41:15;;;;;;;;;;;-0.10;99.90;;;;;;5086769;28;20205;-80
2022/03/06 03:43:41;;;;;;;;;;;-0.10;99.90;;;;;;5104756;28;19912;-81
2022/03/06 03:46:06;;;;;;;;;;;0.60;99.90;;;;;;5086061;28;19930;-81
2022/03/06 03:48:32;;;;;;;;;;;-0.20;99.90;;;;;;5104323;28;20104;-81
2022/03/06 03:50:58;;;;;;;;;;;-0.10;99.90;;;;;;5104569;28;20199;-80
2022/03/06 03:53:23;;;;;;;;;;;-0.20;99.90;;;;;;5104495;28;19918;-81
2022/03/06 03:55:49;;;;;;;;;;;-0.10;99.90;;;;;;5104045;28;19908;-81
2022/03/06 03:58:15;;;;;;;;;;;0.80;99.90;;;;;;5104179;28;19915;-81
2022/03/06 04:00:45;;;;;;;;;;;0.00;99.90;;;;;;5103637;28;20318;-81
2022/03/06 04:03:11;;;;;;;;;;;-0.10;99.90;;;;;;5103973;28;19907;-80
2022/03/06 04:05:37;;;;;;;;;;;-0.10;99.90;;;;;;5103723;28;19990;-81
2022/03/06 04:08:03;;;;;;;;;;;0.60;99.90;;;;;;5103635;28;20444;-81
2022/03/06 04:10:28;;;;;;;;;;;-0.40;99.90;;;;;;5085033;28;19916;-80
2022/03/06 04:12:54;;;;;;;;;;;-0.50;99.90;;;;;;5103281;28;19908;-79
2022/03/06 04:15:19;;;;;;;;;;;-0.10;99.90;;;;;;5104395;28;19950;-80
2022/03/06 04:17:45;;;;;;;;;;;-0.50;99.90;;;;;;5104161;28;20230;-81
2022/03/06 04:20:11;;;;;;;;;;;-0.60;99.90;;;;;;5104372;28;19915;-80
2022/03/06 04:22:36;;;;;;;;;;;-0.60;99.90;;;;;;5103493;28;19916;-80
2022/03/06 04:25:02;;;;;;;;;;;0.00;99.90;;;;;;5103703;28;20112;-81
2022/03/06 04:27:28;;;;;;;;;;;-0.60;99.90;;;;;;5104056;28;20006;-81
2022/03/06 04:29:53;;;;;;;;;;;-0.60;99.90;;;;;;5103650;28;20432;-80
2022/03/06 04:32:19;;;;;;;;;;;-0.50;99.90;;;;;;5103201;28;19908;-80
2022/03/06 04:34:44;;;;;;;;;;;0.30;99.90;;;;;;5103781;28;20275;-82
2022/03/06 04:37:10;;;;;;;;;;;-0.60;99.90;;;;;;5103884;28;20318;-81
2022/03/06 04:39:36;;;;;;;;;;;-0.50;99.90;;;;;;5104004;28;20104;-81
2022/03/06 04:42:01;;;;;;;;;;;-0.50;99.90;;;;;;5103923;28;20618;-79
2022/03/06 04:44:27;;;;;;;;;;;-0.50;99.90;;;;;;5103488;28;19912;-80
2022/03/06 04:46:52;;;;;;;;;;;-0.60;99.90;;;;;;5104898;28;19976;-81
2022/03/06 04:49:18;;;;;;;;;;;-0.50;99.90;;;;;;5104668;28;19914;-81
2022/03/06 04:51:43;;;;;;;;;;;1.70;99.90;;;;;;5105010;28;19916;-81
2022/03/06 04:54:09;;;;;;;;;;;-0.20;99.90;;;;;;5104836;28;20306;-81
2022/03/06 04:56:35;;;;;;;;;;;0.30;99.90;;;;;;5112921;28;19972;-81
2022/03/06 04:59:01;;;;;;;;;;;-0.60;99.90;;;;;;5115077;28;20205;-81
2022/03/06 05:01:27;;;;;;;;;;;-0.80;99.90;;;;;;5114493;28;19918;-81
2022/03/06 05:03:53;;;;;;;;;;;-0.80;99.90;;;;;;5112656;28;19964;-82
2022/03/06 05:06:19;;;;;;;;;;;-0.70;99.90;;;;;;5113575;28;20121;-81
2022/03/06 05:08:46;;;;;;;;;;;-0.70;99.90;;;;;;5113389;28;20000;-82
2022/03/06 05:11:12;;;;;;;;;;;-0.70;99.90;;;;;;5113899;28;20119;-81
2022/03/06 05:13:38;;;;;;;;;;;-0.70;99.90;;;;;;5112255;28;19914;-80
2022/03/06 05:16:03;;;;;;;;;;;0.40;99.90;;;;;;5111839;28;19989;-81
2022/03/06 05:18:29;;;;;;;;;;;-0.70;99.90;;;;;;5104115;28;20308;-81
2022/03/06 05:20:55;;;;;;;;;;;-0.70;99.90;;;;;;5084302;28;20534;-81
2022/03/06 05:23:21;;;;;;;;;;;-0.80;99.90;;;;;;5083276;28;19908;-81
2022/03/06 05:25:47;;;;;;;;;;;-0.70;99.90;;;;;;5102224;28;20215;-81
2022/03/06 05:28:13;;;;;;;;;;;-0.70;99.90;;;;;;5101928;28;19912;-81
2022/03/06 05:30:38;;;;;;;;;;;-0.10;99.90;;;;;;5105816;28;20421;-80
2022/03/06 05:33:05;;;;;;;;;;;-0.70;99.90;;;;;;5108278;28;19916;-81
2022/03/06 05:35:31;;;;;;;;;;;-0.70;99.90;;;;;;5110877;28;19920;-81
2022/03/06 05:37:56;;;;;;;;;;;-0.60;99.90;;;;;;5115415;28;19951;-82
2022/03/06 05:40:22;;;;;;;;;;;-0.70;99.90;;;;;;5096365;28;20105;-81
2022/03/06 05:42:48;;;;;;;;;;;-0.70;99.90;;;;;;5113741;28;19908;-80
2022/03/06 05:45:13;;;;;;;;;;;-0.60;99.90;;;;;;5110088;28;19927;-80
2022/03/06 05:47:39;;;;;;;;;;;0.50;99.90;;;;;;5101582;28;19916;-80
2022/03/06 05:50:06;;;;;;;;;;;-0.60;99.90;;;;;;5101376;28;19981;-80
2022/03/06 05:52:31;;;;;;;;;;;-0.50;99.90;;;;;;5082688;28;20024;-81
2022/03/06 05:54:57;;;;;;;;;;;-0.50;99.90;;;;;;5101413;28;19911;-81
2022/03/06 05:57:24;;;;;;;;;;;-0.40;99.90;;;;;;5104768;28;20320;-80
2022/03/06 05:59:50;;;;;;;;;;;-0.30;99.90;;;;;;5103299;28;19912;-79
2022/03/06 06:02:15;;;;;;;;;;;-0.40;99.90;;;;;;5101167;28;19908;-80
2022/03/06 06:04:41;;;;;;;;;;;-0.40;99.90;;;;;;5100383;28;19919;-80
2022/03/06 06:07:06;;;;;;;;;;;0.60;99.90;;;;;;5100455;28;20246;-80
2022/03/06 06:09:32;;;;;;;;;;;-0.30;99.90;;;;;;5100001;28;19912;-81
2022/03/06 06:11:59;;;;;;;;;;;-0.20;99.90;;;;;;5100375;28;19958;-81
2022/03/06 06:14:24;;;;;;;;;;;-0.30;99.90;;;;;;5100179;28;19950;-80
2022/03/06 06:16:50;;;;;;;;;;;-0.20;99.90;;;;;;5099642;28;20457;-81
2022/03/06 06:19:15;;;;;;;;;;;-0.10;99.90;;;;;;5099893;28;19912;-80
2022/03/06 06:21:44;;;;;;;;;;;-0.20;99.90;;;;;;5099867;28;19918;-81
2022/03/06 06:24:13;;;;;;;;;;;-0.20;99.90;;;;;;5099602;28;19908;-80
2022/03/06 06:26:39;;;;;;;;;;;-0.10;99.90;;;;;;5099603;28;19944;-81
2022/03/06 06:29:04;;;;;;;;;;;-0.10;99.90;;;;;;5099747;28;20425;-80
2022/03/06 06:31:32;;;;;;;;;;;0.00;99.90;;;;;;5098822;28;20465;-80
2022/03/06 06:33:59;;;;;;;;;;;0.10;99.90;;;;;;5099441;28;20200;-81
2022/03/06 06:36:25;;;;;;;;;;;0.10;99.90;;;;;;5099747;28;19915;-81
2022/03/06 06:38:50;;;;;;;;;;;0.10;99.90;;;;;;5099308;28;19907;-81
2022/03/06 06:41:16;;;;;;;;;;;0.80;99.90;;;;;;5099327;28;19930;-80
2022/03/06 06:43:44;;;;;;;;;;;0.10;99.90;;;;;;5099792;28;20166;-80
2022/03/06 06:46:10;;;;;;;;;;;0.70;99.90;;;;;;5081113;28;19965;-81
2022/03/06 06:48:36;;;;;;;;;;;0.20;99.90;;;;;;5099571;28;19912;-80
2022/03/06 06:51:01;;;;;;;;;;;0.30;99.90;;;;;;5099312;28;19922;-80
2022/03/06 06:53:27;;;;;;;;;;;0.20;99.90;;;;;;5099381;28;20350;-81
2022/03/06 06:55:53;;;;;;;;;;;0.30;99.90;;;;;;5099329;28;20359;-79
2022/03/06 06:58:18;;;;;;;;;;;0.40;99.90;;;;;;5099279;28;19918;-80
2022/03/06 07:00:44;;;;;;;;;;;0.50;99.90;;;;;;5099508;28;19908;-80
2022/03/06 07:03:10;;;;;;;;;;;0.40;99.90;;;;;;5080746;28;19908;-80
2022/03/06 07:05:35;;;;;;;;;;;0.40;99.90;;;;;;5099499;28;20337;-81
2022/03/06 07:08:01;;;;;;;;;;;0.90;99.90;;;;;;5099846;28;20391;-79
2022/03/06 07:10:27;;;;;;;;;;;1.80;99.90;;;;;;5099153;28;19931;-79
2022/03/06 07:12:53;;;;;;;;;;;0.60;99.90;;;;;;5080895;28;20163;-80
2022/03/06 07:15:19;;;;;;;;;;;0.80;99.90;;;;;;5099459;28;19914;-79
2022/03/06 07:17:44;;;;;;;;;;;0.90;99.90;;;;;;5099344;28;19916;-80
2022/03/06 07:20:10;;;;;;;;;;;1.10;99.90;;;;;;5099515;28;20401;-81
2022/03/06 07:22:36;;;;;;;;;;;1.10;99.90;;;;;;5099589;28;19908;-80
2022/03/06 07:25:02;;;;;;;;;;;1.20;99.90;;;;;;5099676;28;20390;-79
2022/03/06 07:27:27;;;;;;;;;;;1.30;99.70;;;;;;5099771;28;19912;-79
2022/03/06 07:29:53;;;;;;;;;;;-0.40;99.40;;;;;;5099536;28;19912;-79
2022/03/06 07:32:18;;;;;;;;;;;1.00;99.80;;;;;;5099794;28;19907;-80
2022/03/06 07:34:44;;;;;;;;;;;1.00;99.90;;;;;;5099898;28;19918;-79
2022/03/06 07:37:09;;;;;;;;;;;1.00;99.90;;;;;;5099862;28;19919;-79
2022/03/06 07:39:35;;;;;;;;;;;1.00;99.90;;;;;;5099858;28;20212;-79
2022/03/06 07:42:03;;;;;;;;;;;1.00;99.90;;;;;;5099753;28;19908;-79
2022/03/06 07:44:29;;;;;;;;;;;0.50;99.90;;;;;;5099264;28;19915;-79
2022/03/06 07:46:54;;;;;;;;;;;0.70;99.90;;;;;;5084491;28;19920;-80
2022/03/06 07:49:20;;;;;;;;;;;-0.10;99.90;;;;;;5106852;28;19912;-79
2022/03/06 07:51:45;;;;;;;;;;;0.60;99.90;;;;;;5099750;28;19923;-79
2022/03/06 07:54:14;;;;;;;;;;;0.70;99.90;;;;;;5099078;28;19908;-79
2022/03/06 07:56:46;;;;;;;;;;;0.80;99.90;;;;;;5080075;28;19911;-79
2022/03/06 07:59:14;;;;;;;;;;;0.90;99.90;;;;;;5098601;28;19908;-80
2022/03/06 08:01:39;;;;;;;;;;;0.90;99.90;;;;;;5098567;28;19908;-80
2022/03/06 08:04:05;;;;;;;;;;;0.90;99.90;;;;;;5099032;28;20495;-79
2022/03/06 08:06:31;;;;;;;;;;;3.10;99.90;;;;;;5099154;28;20116;-79
2022/03/06 08:08:56;;;;;;;;;;;0.90;99.90;;;;;;5102636;28;19934;-79
2022/03/06 08:11:22;;;;;;;;;;;1.50;99.90;;;;;;5102501;28;19916;-79
2022/03/06 08:13:47;;;;;;;;;;;0.50;99.90;;;;;;5102261;28;19912;-79
2022/03/06 08:16:13;;;;;;;;;;;1.30;99.90;;;;;;5101799;28;19923;-79
2022/03/06 08:18:39;;;;;;;;;;;0.50;99.90;;;;;;5102080;28;19919;-79
2022/03/06 08:21:04;;;;;;;;;;;0.40;99.90;;;;;;5102335;28;19993;-80
2022/03/06 08:23:30;;;;;;;;;;;0.40;99.90;;;;;;5083664;28;20394;-79
2022/03/06 08:25:55;;;;;;;;;;;0.40;99.90;;;;;;5102013;28;20203;-79
2022/03/06 08:28:21;;;;;;;;;;;0.90;99.90;;;;;;5102045;28;20238;-80
2022/03/06 08:30:47;;;;;;;;;;;0.50;99.90;;;;;;5102352;28;20373;-79
2022/03/06 08:33:12;;;;;;;;;;;0.30;99.90;;;;;;5102119;28;20127;-80
2022/03/06 08:35:38;;;;;;;;;;;0.40;99.90;;;;;;5102290;28;19907;-80
2022/03/06 08:38:03;;;;;;;;;;;0.30;99.90;;;;;;5102407;28;19927;-79
2022/03/06 08:40:31;;;;;;;;;;;0.50;99.90;;;;;;5102810;28;19908;-80
2022/03/06 08:42:57;;;;;;;;;;;0.20;99.90;;;;;;5102450;28;19919;-79
2022/03/06 08:45:22;;;;;;;;;;;0.30;99.90;;;;;;5101813;28;19920;-79
2022/03/06 08:47:48;;;;;;;;;;;0.90;99.90;;;;;;5102852;28;20124;-80
2022/03/06 08:50:13;;;;;;;;;;;0.40;99.90;;;;;;5088679;28;20326;-79
2022/03/06 08:52:39;;;;;;;;;;;0.50;99.90;;;;;;5108017;28;19919;-79
2022/03/06 08:55:05;;;;;;;;;;;0.60;99.90;;;;;;5108566;28;20247;-79
2022/03/06 08:57:30;;;;;;;;;;;0.70;99.90;;;;;;5107998;28;20079;-80
2022/03/06 08:59:56;;;;;;;;;;;0.80;99.90;;;;;;5102329;28;20024;-79
2022/03/06 09:02:21;;;;;;;;;;;0.90;99.90;;;;;;5083281;28;20402;-79
2022/03/06 09:04:47;;;;;;;;;;;0.90;99.90;;;;;;5101952;28;20382;-79
2022/03/06 09:07:13;;;;;;;;;;;0.90;99.90;;;;;;5101678;28;19961;-79
2022/03/06 09:09:38;;;;;;;;;;;1.60;99.90;;;;;;5100834;28;19922;-79
2022/03/06 09:12:04;;;;;;;;;;;1.00;99.90;;;;;;5101331;28;20574;-79
2022/03/06 09:14:30;;;;;;;;;;;0.90;99.90;;;;;;5101310;28;19908;-79
2022/03/06 09:16:55;;;;;;;;;;;3.40;99.90;;;;;;5101002;28;20317;-79
2022/03/06 09:19:23;;;;;;;;;;;1.00;99.90;;;;;;5099752;28;19928;-79
2022/03/06 09:21:49;;;;;;;;;;;1.00;99.90;;;;;;5100659;28;20370;-79
2022/03/06 09:24:15;;;;;;;;;;;1.10;99.90;;;;;;5100765;28;19916;-79
2022/03/06 09:26:42;;;;;;;;;;;1.20;99.90;;;;;;5100857;28;20021;-79
2022/03/06 09:29:08;;;;;;;;;;;1.20;99.90;;;;;;5100902;28;20592;-79
2022/03/06 09:31:34;;;;;;;;;;;1.30;99.90;;;;;;5100539;28;19920;-79
2022/03/06 09:33:59;;;;;;;;;;;1.30;99.90;;;;;;5100851;28;19908;-79
2022/03/06 09:36:25;;;;;;;;;;;1.30;99.90;;;;;;5100836;28;20325;-79
2022/03/06 09:38:50;;;;;;;;;;;1.40;99.60;;;;;;5100394;28;19962;-78
2022/03/06 09:41:17;;;;;;;;;;;1.40;99.80;;;;;;5082270;28;19915;-79
2022/03/06 09:43:43;;;;;;;;;;;1.50;99.50;;;;;;5100739;28;20328;-79
2022/03/06 09:46:09;;;;;;;;;;;1.90;99.40;;;;;;5100952;28;19920;-79
2022/03/06 09:48:35;;;;;;;;;;;1.40;99.30;;;;;;5100677;28;20463;-79
2022/03/06 09:51:02;;;;;;;;;;;1.50;99.40;;;;;;5100935;28;19916;-79
2022/03/06 09:53:27;;;;;;;;;;;1.60;99.10;;;;;;5101958;28;20310;-79
2022/03/06 09:55:53;;;;;;;;;;;1.70;98.80;;;;;;5102346;28;19914;-79
2022/03/06 09:58:19;;;;;;;;;;;3.10;99.60;;;;;;5104728;28;20423;-79
2022/03/06 10:00:44;;;;;;;;;;;1.60;99.10;;;;;;5105685;28;19908;-79
2022/03/06 10:03:16;;;;;;;;;;;1.60;99.10;;;;;;5101944;28;19908;-79
2022/03/06 10:05:42;;;;;;;;;;;1.60;99.00;;;;;;5100449;28;19986;-79
2022/03/06 10:08:18;;;;;;;;;;;1.70;99.00;;;;;;5100310;28;20435;-79
2022/03/06 10:10:45;;;;;;;;;;;1.80;98.90;;;;;;5099996;28;19962;-79
2022/03/06 10:13:21;;;;;;;;;;;1.80;98.50;;;;;;5100252;28;19912;-80
2022/03/06 10:15:57;;;;;;;;;;;1.80;98.80;;;;;;5100109;28;20381;-79
2022/03/06 10:18:25;;;;;;;;;;;1.80;98.90;;;;;;5100573;28;19908;-79
2022/03/06 10:20:50;;;;;;;;;;;1.70;99.60;;;;;;5081768;28;20100;-78
2022/03/06 10:23:28;;;;;;;;;;;1.80;99.00;;;;;;5099755;28;19919;-78
2022/03/06 10:26:04;;;;;;;;;;;1.70;98.80;;;;;;5099696;28;19966;-78
2022/03/06 10:28:30;;;;;;;;;;;1.40;98.60;;;;;;5099862;28;19998;-78
2022/03/06 10:31:02;;;;;;;;;;;1.70;99.30;;;;;;5099147;28;20393;-79
2022/03/06 10:33:28;;;;;;;;;;;1.70;99.00;;;;;;5099279;28;19916;-80
2022/03/06 10:35:58;;;;;;;;;;;1.70;98.80;;;;;;5099512;28;20471;-79
2022/03/06 10:38:28;;;;;;;;;;;2.60;98.90;;;;;;5099856;28;20229;-78
2022/03/06 10:40:54;;;;;;;;;;;1.70;98.70;;;;;;5099572;28;20153;-78
2022/03/06 10:43:24;;;;;;;;;;;1.60;98.90;;;;;;5099742;28;19908;-78
2022/03/06 10:45:50;;;;;;;;;;;1.50;99.20;;;;;;5080778;28;19968;-79
2022/03/06 10:48:16;;;;;;;;;;;1.40;99.40;;;;;;5099227;28;20358;-79
2022/03/06 10:50:42;;;;;;;;;;;1.40;99.20;;;;;;5098962;28;19998;-78
2022/03/06 10:53:17;;;;;;;;;;;1.40;99.50;;;;;;5099599;28;20386;-79
2022/03/06 10:55:43;;;;;;;;;;;1.50;99.60;;;;;;5099473;28;20397;-79
2022/03/06 10:58:09;;;;;;;;;;;1.50;99.50;;;;;;5099536;28;19907;-79
2022/03/06 11:00:35;;;;;;;;;;;1.70;99.20;;;;;;5099669;28;19907;-78
2022/03/06 11:03:04;;;;;;;;;;;1.60;99.00;;;;;;5099898;28;20350;-78
2022/03/06 11:05:31;;;;;;;;;;;1.60;99.00;;;;;;5081987;28;19919;-79
2022/03/06 11:07:57;;;;;;;;;;;1.50;98.90;;;;;;5100644;28;20365;-79
2022/03/06 11:10:23;;;;;;;;;;;1.50;99.20;;;;;;5100700;28;20022;-79
2022/03/06 11:12:49;;;;;;;;;;;1.50;99.30;;;;;;5100189;28;19914;-78
2022/03/06 11:15:15;;;;;;;;;;;1.70;99.10;;;;;;5100377;28;19915;-79
2022/03/06 11:17:41;;;;;;;;;;;1.70;98.60;;;;;;5100493;28;19954;-79
2022/03/06 11:20:07;;;;;;;;;;;1.70;98.60;;;;;;5100212;28;19912;-79
2022/03/06 11:22:41;;;;;;;;;;;1.80;98.70;;;;;;5101951;28;19914;-79
2022/03/06 11:25:08;;;;;;;;;;;1.80;98.80;;;;;;5102097;28;19916;-78
2022/03/06 11:27:44;;;;;;;;;;;1.00;98.40;;;;;;5082890;28;19995;-78
2022/03/06 11:30:20;;;;;;;;;;;2.00;98.30;;;;;;5101798;28;19916;-79
2022/03/06 11:33:06;;;;;;;;;;;2.00;98.00;;;;;;5102376;28;20338;-79
2022/03/06 11:35:36;;;;;;;;;;;1.90;98.30;;;;;;5102418;28;19923;-79
2022/03/06 11:38:03;;;;;;;;;;;1.90;98.30;;;;;;5102636;28;20035;-79
2022/03/06 11:40:40;;;;;;;;;;;1.80;98.60;;;;;;5083825;28;19912;-78
2022/03/06 11:43:07;;;;;;;;;;;1.50;98.60;;;;;;5105655;28;19908;-78
2022/03/06 11:45:59;;;;;;;;;;;1.40;99.20;;;;;;5106515;28;20184;-78
2022/03/06 11:48:34;;;;;;;;;;;1.30;99.60;;;;;;5104970;28;20143;-79
2022/03/06 11:51:14;;;;;;;;;;;1.30;99.80;;;;;;5111344;28;19944;-79
2022/03/06 11:53:49;;;;;;;;;;;1.30;99.90;;;;;;5111615;28;19939;-79
2022/03/06 11:56:33;;;;;;;;;;;1.30;99.90;;;;;;5093429;28;20003;-79
2022/03/06 11:59:04;;;;;;;;;;;1.30;99.90;;;;;;5105872;28;19918;-79
2022/03/06 12:01:39;;;;;;;;;;;1.20;99.90;;;;;;5104748;28;20143;-79
2022/03/06 12:04:09;;;;;;;;;;;1.30;99.90;;;;;;5105843;28;19934;-79
2022/03/06 12:06:42;;;;;;;;;;;1.20;99.90;;;;;;5110492;28;20251;-79
2022/03/06 12:09:15;;;;;;;;;;;1.20;99.90;;;;;;5092911;28;20067;-79
2022/03/06 12:11:41;;;;;;;;;;;1.20;99.90;;;;;;5111367;28;20004;-79
2022/03/06 12:14:13;;;;;;;;;;;1.20;99.80;;;;;;5110979;28;19919;-79
2022/03/06 12:16:57;;;;;;;;;;;1.30;99.80;;;;;;5106080;28;19912;-79
2022/03/06 12:19:23;;;;;;;;;;;1.30;99.90;;;;;;5102784;28;20069;-78
2022/03/06 12:21:48;;;;;;;;;;;1.30;99.90;;;;;;5102207;28;19922;-78
2022/03/06 12:24:26;;;;;;;;;;;1.50;99.80;;;;;;5082992;28;20006;-78
2022/03/06 12:26:53;;;;;;;;;;;1.50;99.50;;;;;;5101784;28;19907;-79
2022/03/06 12:29:37;;;;;;;;;;;1.50;99.60;;;;;;5101629;28;19912;-78
2022/03/06 12:32:21;;;;;;;;;;;1.50;99.30;;;;;;5101335;28;19952;-78
2022/03/06 12:34:47;;;;;;;;;;;1.40;99.50;;;;;;5101576;28;20413;-79
2022/03/06 12:37:12;;;;;;;;;;;1.50;99.50;;;;;;5082879;28;19984;-79
2022/03/06 12:39:38;;;;;;;;;;;1.50;99.80;;;;;;5082310;28;20336;-79
2022/03/06 12:42:03;;;;;;;;;;;1.50;99.60;;;;;;5101201;28;19963;-78
2022/03/06 12:44:30;;;;;;;;;;;1.60;99.70;;;;;;5082560;28;19947;-79
2022/03/06 12:46:56;;;;;;;;;;;1.60;99.90;;;;;;5101271;28;20011;-78
2022/03/06 12:49:23;;;;;;;;;;;1.50;99.80;;;;;;5101523;28;20006;-78
2022/03/06 12:51:50;;;;;;;;;;;1.60;99.90;;;;;;5101320;28;19915;-78
2022/03/06 12:54:20;;;;;;;;;;;1.50;99.40;;;;;;5100840;28;20411;-79
2022/03/06 12:56:46;;;;;;;;;;;1.50;99.80;;;;;;5101410;28;19908;-78
2022/03/06 12:59:16;;;;;;;;;;;1.60;99.50;;;;;;5101248;28;20390;-79
2022/03/06 13:01:43;;;;;;;;;;;1.70;99.30;;;;;;5101265;28;20434;-78
2022/03/06 13:04:09;;;;;;;;;;;1.60;99.50;;;;;;5101509;28;19908;-79
2022/03/06 13:06:34;;;;;;;;;;;1.60;99.70;;;;;;5101201;28;19908;-79
2022/03/06 13:09:01;;;;;;;;;;;1.70;99.40;;;;;;5101316;28;20003;-79
2022/03/06 13:11:27;;;;;;;;;;;1.70;99.30;;;;;;5101107;28;19916;-79
2022/03/06 13:14:00;;;;;;;;;;;1.50;99.80;;;;;;5083030;28;20168;-78
2022/03/06 13:16:26;;;;;;;;;;;1.50;99.60;;;;;;5101621;28;19912;-78
2022/03/06 13:18:56;;;;;;;;;;;1.50;99.90;;;;;;5101113;28;19938;-78
2022/03/06 13:21:24;;;;;;;;;;;1.60;99.70;;;;;;5101565;28;19908;-79
2022/03/06 13:23:58;;;;;;;;;;;1.60;99.70;;;;;;5101269;28;19926;-79
2022/03/06 13:26:25;;;;;;;;;;;1.50;99.40;;;;;;5081724;28;20375;-79
2022/03/06 13:28:50;;;;;;;;;;;1.80;99.80;;;;;;5101311;28;19908;-79
2022/03/06 13:31:16;;;;;;;;;;;1.50;99.60;;;;;;5101649;28;20200;-80
2022/03/06 13:33:41;;;;;;;;;;;1.50;99.30;;;;;;5101040;28;19908;-79
2022/03/06 13:36:16;;;;;;;;;;;1.50;99.60;;;;;;5100553;28;19915;-78
2022/03/06 13:38:42;;;;;;;;;;;1.40;99.70;;;;;;5100375;28;19908;-78
2022/03/06 13:41:09;;;;;;;;;;;1.50;99.80;;;;;;5100073;28;19923;-78
2022/03/06 13:43:42;;;;;;;;;;;1.40;99.90;;;;;;5100140;28;20475;-79
2022/03/06 13:46:09;;;;;;;;;;;1.40;99.80;;;;;;5081490;28;20409;-79
2022/03/06 13:48:34;;;;;;;;;;;1.50;99.90;;;;;;5100150;28;20521;-78
2022/03/06 13:51:00;;;;;;;;;;;1.40;99.90;;;;;;5082121;28;20460;-79
2022/03/06 13:53:26;;;;;;;;;;;0.50;99.70;;;;;;5082944;28;19908;-79
2022/03/06 13:55:55;;;;;;;;;;;1.30;99.90;;;;;;5101259;28;19908;-79
2022/03/06 13:58:37;;;;;;;;;;;;;;;;;;;;;
2022/03/06 14:01:03;;;;;;;;;;;1.00;99.90;;;;;;5100041;28;20330;-78
2022/03/06 14:03:39;;;;;;;;;;;1.30;99.90;;;;;;5081865;28;19912;-79
2022/03/06 14:06:06;;;;;;;;;;;1.40;99.90;;;;;;5099894;28;19912;-79
2022/03/06 14:08:37;;;;;;;;;;;3.40;99.90;;;;;;5100514;28;19908;-79
2022/03/06 14:11:03;;;;;;;;;;;1.40;99.70;;;;;;5100072;28;20439;-79
2022/03/06 14:13:29;;;;;;;;;;;1.40;99.90;;;;;;5081512;28;19912;-79
2022/03/06 14:15:58;;;;;;;;;;;1.40;99.90;;;;;;5082424;28;19907;-79
2022/03/06 14:18:31;;;;;;;;;;;1.30;99.80;;;;;;5100441;28;19926;-79
2022/03/06 14:20:57;;;;;;;;;;;1.40;99.70;;;;;;5102032;28;20325;-79
2022/03/06 14:23:23;;;;;;;;;;;-1.00;99.10;;;;;;5105762;28;19908;-80
2022/03/06 14:25:48;;;;;;;;;;;1.40;99.80;;;;;;5107014;28;19912;-79